createdAt,value
2022-12-16T00:01:26.994Z,-2.71
2022-12-16T00:03:57.434Z,-2.76
2022-12-16T00:06:27.494Z,-2.93
2022-12-16T00:08:55.939Z,-3.23
2022-12-16T00:11:24.229Z,-3.40
2022-12-16T00:13:52.791Z,-2.99
2022-12-16T00:16:23.215Z,-2.66
2022-12-16T00:18:53.141Z,-2.64
2022-12-16T00:21:21.900Z,-3.46
2022-12-16T00:23:50.435Z,-3.33
2022-12-16T00:26:18.716Z,-3.09
2022-12-16T00:28:47.178Z,-2.73
2022-12-16T00:31:15.365Z,-2.71
2022-12-16T00:33:43.872Z,-2.79
2022-12-16T00:36:13.375Z,-2.49
2022-12-16T00:38:41.911Z,-2.69
2022-12-16T00:41:10.125Z,-2.65
2022-12-16T00:43:38.550Z,-2.83
2022-12-16T00:46:06.986Z,-2.81
2022-12-16T00:48:35.501Z,-3.33
2022-12-16T00:51:03.733Z,-3.07
2022-12-16T00:53:33.885Z,-2.49
2022-12-16T00:56:06.473Z,-2.43
2022-12-16T00:58:35.065Z,-2.64
2022-12-16T01:01:03.903Z,-2.20
2022-12-16T01:03:32.705Z,-2.77
2022-12-16T01:06:01.046Z,-3.01
2022-12-16T01:08:29.664Z,-3.19
2022-12-16T01:11:00.223Z,-2.77
2022-12-16T01:13:28.769Z,-2.97
2022-12-16T01:16:01.173Z,-3.02
2022-12-16T01:18:29.655Z,-3.16
2022-12-16T01:21:04.169Z,-2.61
2022-12-16T01:23:32.880Z,-2.80
2022-12-16T01:26:03.475Z,-2.68
2022-12-16T01:28:32.106Z,-3.31
2022-12-16T01:31:02.699Z,-2.68
2022-12-16T01:33:32.767Z,-2.53
2022-12-16T01:36:02.656Z,-2.79
2022-12-16T01:38:31.652Z,-3.28
2022-12-16T01:40:59.786Z,-2.77
2022-12-16T01:43:31.599Z,-2.38
2022-12-16T01:46:02.147Z,-2.64
2022-12-16T01:48:39.513Z,-2.72
2022-12-16T01:51:10.655Z,-3.30
2022-12-16T01:53:41.041Z,-2.91
2022-12-16T01:56:09.327Z,-3.31
2022-12-16T01:58:41.780Z,-2.91
2022-12-16T02:01:10.262Z,-3.10
2022-12-16T02:03:40.026Z,-3.00
2022-12-16T02:06:08.724Z,-2.87
2022-12-16T02:08:37.298Z,-2.77
2022-12-16T02:11:16.658Z,-2.20
2022-12-16T02:14:01.567Z,-2.50
2022-12-16T02:16:34.638Z,-2.80
2022-12-16T02:19:14.573Z,-2.53
2022-12-16T02:21:50.023Z,-2.64
2022-12-16T02:24:47.540Z,-2.40
2022-12-16T02:27:45.408Z,-2.54
2022-12-16T02:30:41.519Z,-2.64
2022-12-16T02:33:19.471Z,-2.57
2022-12-16T02:35:51.769Z,-2.59
2022-12-16T02:38:25.547Z,-2.94
2022-12-16T02:40:57.831Z,-2.49
2022-12-16T02:43:37.353Z,-2.69
2022-12-16T02:46:08.248Z,-2.35
2022-12-16T02:48:36.982Z,-3.08
2022-12-16T02:51:05.666Z,-3.02
2022-12-16T02:53:36.670Z,-2.70
2022-12-16T02:56:08.569Z,-2.83
2022-12-16T02:58:38.856Z,-2.73
2022-12-16T03:01:14.544Z,-2.44
2022-12-16T03:03:47.302Z,-2.31
2022-12-16T03:06:17.359Z,-2.53
2022-12-16T03:08:51.412Z,-2.04
2022-12-16T03:11:20.123Z,-2.47
2022-12-16T03:13:52.119Z,-2.03
2022-12-16T03:16:24.034Z,-1.84
2022-12-16T03:18:55.828Z,-2.78
2022-12-16T03:21:27.425Z,-2.58
2022-12-16T03:23:56.084Z,-2.13
2022-12-16T03:26:28.520Z,-2.73
2022-12-16T03:29:00.288Z,-2.50
2022-12-16T03:31:36.798Z,-2.85
2022-12-16T03:34:10.925Z,-2.89
2022-12-16T03:36:40.735Z,-2.68
2022-12-16T03:39:10.124Z,-2.85
2022-12-16T03:41:39.616Z,-3.33
2022-12-16T03:44:09.006Z,-3.14
2022-12-16T03:46:39.008Z,-3.08
2022-12-16T03:49:07.179Z,-3.19
2022-12-16T03:51:35.695Z,-3.39
2022-12-16T03:54:04.013Z,-2.94
2022-12-16T03:56:32.455Z,-3.14
2022-12-16T03:59:00.666Z,-3.20
2022-12-16T04:01:29.227Z,-3.05
2022-12-16T04:03:58.963Z,-2.53
2022-12-16T04:06:27.656Z,-2.60
2022-12-16T04:08:55.956Z,-2.48
2022-12-16T04:11:41.870Z,-3.24
2022-12-16T04:14:27.772Z,-3.22
2022-12-16T04:17:13.756Z,-2.85
2022-12-16T04:20:02.633Z,-2.18
2022-12-16T04:22:50.634Z,-2.93
2022-12-16T04:25:20.845Z,-2.59
2022-12-16T04:27:49.670Z,-2.39
2022-12-16T04:30:22.393Z,-2.53
2022-12-16T04:33:11.233Z,-2.18
2022-12-16T04:35:58.446Z,-2.14
2022-12-16T04:38:44.542Z,-2.88
2022-12-16T04:41:39.023Z,-2.56
2022-12-16T04:44:25.407Z,-2.46
2022-12-16T04:47:11.304Z,-2.07
2022-12-16T04:49:57.124Z,-1.97
2022-12-16T04:52:44.337Z,-1.93
2022-12-16T04:55:30.333Z,-1.82
2022-12-16T04:58:17.534Z,-1.62
2022-12-16T05:01:05.001Z,-1.52
2022-12-16T05:03:51.200Z,-1.67
2022-12-16T05:06:38.052Z,-1.74
2022-12-16T05:09:25.712Z,-1.47
2022-12-16T05:12:11.747Z,-1.75
2022-12-16T05:15:09.053Z,-1.74
2022-12-16T05:17:55.273Z,-1.77
2022-12-16T05:20:41.058Z,-1.64
2022-12-16T05:23:27.383Z,-1.63
2022-12-16T05:26:14.261Z,-1.44
2022-12-16T05:29:02.710Z,-1.84
2022-12-16T05:31:48.647Z,-1.88
2022-12-16T05:34:34.992Z,-1.56
2022-12-16T05:37:20.477Z,-1.62
2022-12-16T05:40:06.306Z,-1.40
2022-12-16T05:42:56.044Z,-0.98
2022-12-16T05:45:42.032Z,-1.24
2022-12-16T05:48:27.877Z,-1.26
2022-12-16T05:51:13.066Z,-1.19
2022-12-16T05:53:58.878Z,-1.28
2022-12-16T05:56:44.972Z,-1.12
2022-12-16T05:59:32.120Z,-0.87
2022-12-16T06:02:18.169Z,-1.35
2022-12-16T06:05:18.989Z,-1.51
2022-12-16T06:08:09.567Z,-1.35
2022-12-16T06:10:55.279Z,-1.64
2022-12-16T06:13:41.384Z,-1.55
2022-12-16T06:16:33.869Z,-1.07
2022-12-16T06:19:19.762Z,-1.20
2022-12-16T06:22:05.381Z,-1.02
2022-12-16T06:24:51.194Z,-0.94
2022-12-16T06:27:40.359Z,-0.87
2022-12-16T06:30:30.550Z,-0.63
2022-12-16T06:33:22.330Z,-0.36
2022-12-16T06:36:12.022Z,-0.80
2022-12-16T06:39:00.819Z,-0.88
2022-12-16T06:41:48.813Z,-0.96
2022-12-16T06:44:35.228Z,-0.74
2022-12-16T06:47:23.925Z,-0.76
2022-12-16T06:50:11.603Z,-0.66
2022-12-16T06:52:58.297Z,-0.85
2022-12-16T06:55:50.796Z,-0.63
2022-12-16T06:58:38.060Z,-1.04
2022-12-16T07:01:26.683Z,-0.95
2022-12-16T07:04:21.121Z,-1.02
2022-12-16T07:07:14.180Z,-0.68
2022-12-16T07:10:02.742Z,-0.90
2022-12-16T07:13:11.793Z,-0.56
2022-12-16T07:15:58.186Z,-0.97
2022-12-16T07:18:43.678Z,-1.13
2022-12-16T07:21:29.608Z,-1.10
2022-12-16T07:24:17.228Z,-0.66
2022-12-16T07:27:03.218Z,-0.99
2022-12-16T07:29:49.233Z,-1.02
2022-12-16T07:32:35.336Z,-0.96
2022-12-16T07:35:21.058Z,-0.84
2022-12-16T07:38:07.670Z,-0.67
2022-12-16T07:40:55.261Z,-0.45
2022-12-16T07:43:41.356Z,-0.68
2022-12-16T07:46:27.537Z,-0.73
2022-12-16T07:49:13.551Z,-0.74
2022-12-16T07:51:59.151Z,-0.75
2022-12-16T07:54:45.402Z,-0.70
2022-12-16T07:57:32.650Z,-0.77
2022-12-16T08:00:33.005Z,-1.07
2022-12-16T08:03:18.969Z,-1.06
2022-12-16T08:06:04.965Z,-0.95
2022-12-16T08:08:50.894Z,-1.02
2022-12-16T08:11:37.056Z,-1.16
2022-12-16T08:14:24.372Z,-0.54
2022-12-16T08:17:10.549Z,-0.62
2022-12-16T08:19:56.751Z,-0.47
2022-12-16T08:22:42.493Z,-0.49
2022-12-16T08:25:27.846Z,-0.41
2022-12-16T08:28:14.462Z,-0.49
2022-12-16T08:31:09.096Z,-0.05
2022-12-16T08:33:58.641Z,-0.46
2022-12-16T08:36:47.679Z,-0.13
2022-12-16T08:39:35.650Z,-0.41
2022-12-16T08:42:21.683Z,-0.31
2022-12-16T08:45:13.710Z,-0.33
2022-12-16T08:48:15.605Z,0.07
2022-12-16T08:51:04.069Z,-0.12
2022-12-16T08:53:58.466Z,-0.06
2022-12-16T08:56:44.433Z,0.03
2022-12-16T08:59:38.658Z,0.10
2022-12-16T09:02:25.140Z,0.13
2022-12-16T09:05:12.716Z,0.34
2022-12-16T09:07:58.599Z,-0.01
2022-12-16T09:10:44.031Z,-0.11
2022-12-16T09:13:32.135Z,0.25
2022-12-16T09:16:19.852Z,0.16
2022-12-16T09:19:06.403Z,0.12
2022-12-16T09:21:54.693Z,0.60
2022-12-16T09:24:40.887Z,0.43
2022-12-16T09:27:26.645Z,0.50
2022-12-16T09:30:12.513Z,0.50
2022-12-16T09:33:00.362Z,0.80
2022-12-16T09:35:46.161Z,0.54
2022-12-16T09:38:33.444Z,0.87
2022-12-16T09:41:50.401Z,1.18
2022-12-16T09:44:42.996Z,1.09
2022-12-16T09:47:36.828Z,1.20
2022-12-16T09:50:23.172Z,0.70
2022-12-16T09:53:28.732Z,1.20
2022-12-16T09:56:16.133Z,1.09
2022-12-16T09:59:06.427Z,1.14
2022-12-16T10:01:55.694Z,1.21
2022-12-16T10:04:43.887Z,1.09
2022-12-16T10:07:35.570Z,1.24
2022-12-16T10:10:34.003Z,1.33
2022-12-16T10:13:26.367Z,1.28
2022-12-16T10:16:15.754Z,1.32
2022-12-16T10:19:06.930Z,1.42
2022-12-16T10:21:57.498Z,1.49
2022-12-16T10:24:51.491Z,1.65
2022-12-16T10:27:41.987Z,1.61
2022-12-16T10:30:32.501Z,1.73
2022-12-16T10:33:19.605Z,1.58
2022-12-16T10:36:07.995Z,1.68
2022-12-16T10:38:57.529Z,1.63
2022-12-16T10:41:45.151Z,1.58
2022-12-16T10:44:37.798Z,1.72
2022-12-16T10:47:25.122Z,1.72
2022-12-16T10:50:15.385Z,1.88
2022-12-16T10:53:09.776Z,2.03
2022-12-16T10:56:06.130Z,1.91
2022-12-16T10:58:58.401Z,1.87
2022-12-16T11:01:47.099Z,1.80
2022-12-16T11:04:51.533Z,2.06
2022-12-16T11:07:46.624Z,1.89
2022-12-16T11:10:48.522Z,1.80
2022-12-16T11:13:40.983Z,1.92
2022-12-16T11:16:36.344Z,2.02
2022-12-16T11:19:22.758Z,1.78
2022-12-16T11:22:24.913Z,2.26
2022-12-16T11:25:23.414Z,2.19
2022-12-16T11:28:23.650Z,2.21
2022-12-16T11:31:12.211Z,2.05
2022-12-16T11:33:58.236Z,1.77
2022-12-16T11:36:44.680Z,1.81
2022-12-16T11:39:34.291Z,1.94
2022-12-16T11:42:23.599Z,1.73
2022-12-16T11:45:24.220Z,1.96
2022-12-16T11:48:13.664Z,2.00
2022-12-16T11:51:08.964Z,1.92
2022-12-16T11:54:04.722Z,2.03
2022-12-16T11:56:55.983Z,1.98
2022-12-16T11:59:43.142Z,2.44
2022-12-16T12:02:34.452Z,2.13
2022-12-16T12:05:24.250Z,2.02
2022-12-16T12:08:15.419Z,2.07
2022-12-16T12:11:08.293Z,2.56
2022-12-16T12:14:08.883Z,2.28
2022-12-16T12:17:03.946Z,2.11
2022-12-16T12:19:55.237Z,2.09
2022-12-16T12:22:53.128Z,2.15
2022-12-16T12:25:42.898Z,1.95
2022-12-16T12:28:37.214Z,2.11
2022-12-16T12:31:36.922Z,2.10
2022-12-16T12:34:34.854Z,1.95
2022-12-16T12:37:21.585Z,2.32
2022-12-16T12:40:22.469Z,1.88
2022-12-16T12:43:09.898Z,1.73
2022-12-16T12:46:12.329Z,2.14
2022-12-16T12:49:03.835Z,1.94
2022-12-16T12:51:56.769Z,1.85
2022-12-16T12:54:51.419Z,1.95
2022-12-16T12:57:37.801Z,1.90
2022-12-16T13:00:40.608Z,1.67
2022-12-16T13:03:33.726Z,1.95
2022-12-16T13:06:22.411Z,1.88
2022-12-16T13:09:16.677Z,1.93
2022-12-16T13:12:35.814Z,1.94
2022-12-16T13:15:23.919Z,1.67
2022-12-16T13:18:46.212Z,1.97
2022-12-16T13:22:07.730Z,2.03
2022-12-16T13:25:00.235Z,1.74
2022-12-16T13:27:47.673Z,1.65
2022-12-16T13:30:42.894Z,1.87
2022-12-16T13:33:44.118Z,1.96
2022-12-16T13:36:31.116Z,1.59
2022-12-16T13:39:24.427Z,1.75
2022-12-16T13:42:31.949Z,1.83
2022-12-16T13:45:18.732Z,1.52
2022-12-16T13:48:18.769Z,1.82
2022-12-16T13:51:05.989Z,1.35
2022-12-16T13:53:53.276Z,1.51
2022-12-16T13:56:45.154Z,1.52
2022-12-16T13:59:35.953Z,1.39
2022-12-16T14:02:34.536Z,1.47
2022-12-16T14:05:20.812Z,1.04
2022-12-16T14:08:07.022Z,0.99
2022-12-16T14:11:03.122Z,1.21
2022-12-16T14:13:56.724Z,1.37
2022-12-16T14:16:50.322Z,1.42
2022-12-16T14:19:42.894Z,1.32
2022-12-16T14:22:42.789Z,1.42
2022-12-16T14:25:32.839Z,1.27
2022-12-16T14:28:19.271Z,1.14
2022-12-16T14:31:06.755Z,1.29
2022-12-16T14:33:52.409Z,0.92
2022-12-16T14:36:40.301Z,1.01
2022-12-16T14:39:30.373Z,1.11
2022-12-16T14:42:16.397Z,0.60
2022-12-16T14:45:03.956Z,0.86
2022-12-16T14:47:51.536Z,0.85
2022-12-16T14:50:40.552Z,0.92
2022-12-16T14:53:35.202Z,1.09
2022-12-16T14:56:35.243Z,1.14
2022-12-16T14:59:30.573Z,1.04
2022-12-16T15:02:17.786Z,0.76
2022-12-16T15:05:06.406Z,0.90
2022-12-16T15:07:54.144Z,0.94
2022-12-16T15:10:45.941Z,1.00
2022-12-16T15:13:35.520Z,1.03
2022-12-16T15:16:22.725Z,0.84
2022-12-16T15:19:14.683Z,0.97
2022-12-16T15:22:07.980Z,0.90
2022-12-16T15:24:55.454Z,0.77
2022-12-16T15:27:45.880Z,0.81
2022-12-16T15:31:05.638Z,1.13
2022-12-16T15:33:53.049Z,0.68
2022-12-16T15:36:43.479Z,0.87
2022-12-16T15:39:38.057Z,0.96
2022-12-16T15:42:24.354Z,0.60
2022-12-16T15:45:10.856Z,0.67
2022-12-16T15:47:57.165Z,0.77
2022-12-16T15:50:45.041Z,0.83
2022-12-16T15:53:35.656Z,0.90
2022-12-16T15:56:23.213Z,0.81
2022-12-16T15:59:09.253Z,0.52
2022-12-16T16:02:04.504Z,0.81
2022-12-16T16:04:50.992Z,0.49
2022-12-16T16:07:37.971Z,0.45
2022-12-16T16:10:32.625Z,0.56
2022-12-16T16:13:20.192Z,0.60
2022-12-16T16:16:06.177Z,0.39
2022-12-16T16:18:52.445Z,0.43
2022-12-16T16:21:38.326Z,0.48
2022-12-16T16:24:24.552Z,0.58
2022-12-16T16:27:11.000Z,0.65
2022-12-16T16:29:58.521Z,0.73
2022-12-16T16:32:43.871Z,0.47
2022-12-16T16:35:30.044Z,0.59
2022-12-16T16:38:18.627Z,0.47
2022-12-16T16:41:05.337Z,0.42
2022-12-16T16:43:51.004Z,0.32
2022-12-16T16:46:49.953Z,0.68
2022-12-16T16:49:39.980Z,0.65
2022-12-16T16:52:30.491Z,0.66
2022-12-16T16:55:16.916Z,0.34
2022-12-16T16:58:02.979Z,0.42
2022-12-16T17:00:49.147Z,0.31
2022-12-16T17:03:38.534Z,0.58
2022-12-16T17:06:25.212Z,0.37
2022-12-16T17:09:11.068Z,0.28
2022-12-16T17:11:56.965Z,0.14
2022-12-16T17:14:43.017Z,0.13
2022-12-16T17:17:28.824Z,0.13
2022-12-16T17:20:16.557Z,0.29
2022-12-16T17:23:02.109Z,-0.01
2022-12-16T17:25:48.233Z,-0.07
2022-12-16T17:28:34.218Z,-0.08
2022-12-16T17:31:19.387Z,-0.12
2022-12-16T17:34:05.167Z,-0.00
2022-12-16T17:36:52.447Z,0.19
2022-12-16T17:39:38.277Z,-0.09
2022-12-16T17:42:24.865Z,-0.01
2022-12-16T17:45:10.422Z,-0.14
2022-12-16T17:47:56.730Z,-0.13
2022-12-16T17:50:42.348Z,-0.27
2022-12-16T17:53:30.355Z,0.05
2022-12-16T17:56:21.568Z,0.18
2022-12-16T17:59:09.813Z,-0.13
2022-12-16T18:01:57.091Z,-0.27
2022-12-16T18:04:43.268Z,-0.18
2022-12-16T18:07:29.284Z,-0.13
2022-12-16T18:10:13.078Z,0.13
2022-12-16T18:12:58.892Z,-0.11
2022-12-16T18:15:45.162Z,-0.13
2022-12-16T18:18:30.814Z,-0.19
2022-12-16T18:21:27.678Z,0.23
2022-12-16T18:24:13.304Z,-0.23
2022-12-16T18:27:00.475Z,0.01
2022-12-16T18:29:46.287Z,-0.28
2022-12-16T18:32:35.298Z,-0.27
2022-12-16T18:35:21.335Z,-0.30
2022-12-16T18:38:11.017Z,-0.20
2022-12-16T18:40:59.154Z,-0.25
2022-12-16T18:43:42.930Z,0.04
2022-12-16T18:46:28.411Z,-0.27
2022-12-16T18:49:22.737Z,-0.18
2022-12-16T18:52:08.743Z,-0.30
2022-12-16T18:54:54.676Z,-0.33
2022-12-16T18:57:40.221Z,-0.34
2022-12-16T19:00:28.713Z,0.01
2022-12-16T19:03:14.340Z,-0.31
2022-12-16T19:06:00.298Z,-0.40
2022-12-16T19:08:47.937Z,-0.09
2022-12-16T19:11:34.310Z,-0.34
2022-12-16T19:14:19.984Z,-0.33
2022-12-16T19:17:07.124Z,-0.05
2022-12-16T19:19:52.929Z,-0.34
2022-12-16T19:22:39.490Z,-0.29
2022-12-16T19:25:25.607Z,-0.22
2022-12-16T19:28:11.281Z,-0.28
2022-12-16T19:31:05.178Z,-0.34
2022-12-16T19:33:52.437Z,-0.02
2022-12-16T19:36:41.578Z,-0.36
2022-12-16T19:39:32.970Z,-0.05
2022-12-16T19:42:18.669Z,-0.35
2022-12-16T19:45:04.625Z,-0.39
2022-12-16T19:47:50.034Z,-0.41
2022-12-16T19:50:37.542Z,-0.05
2022-12-16T19:53:23.084Z,-0.26
2022-12-16T19:56:14.139Z,0.01
2022-12-16T19:58:59.919Z,-0.60
2022-12-16T20:01:46.552Z,-0.56
2022-12-16T20:04:32.662Z,-0.48
2022-12-16T20:07:23.123Z,-0.22
2022-12-16T20:10:09.082Z,-0.52
2022-12-16T20:12:56.201Z,-0.53
2022-12-16T20:15:41.953Z,-0.54
2022-12-16T20:18:27.835Z,-0.55
2022-12-16T20:21:13.380Z,-0.44
2022-12-16T20:24:00.771Z,-0.18
2022-12-16T20:26:46.297Z,-0.48
2022-12-16T20:29:32.110Z,-0.42
2022-12-16T20:32:18.107Z,-0.50
2022-12-16T20:35:04.348Z,-0.51
2022-12-16T20:37:49.906Z,-0.57
2022-12-16T20:40:37.638Z,-0.29
2022-12-16T20:43:23.281Z,-0.52
2022-12-16T20:46:13.146Z,-0.26
2022-12-16T20:48:58.832Z,-0.61
2022-12-16T20:51:44.664Z,-0.58
2022-12-16T20:54:30.459Z,-0.51
2022-12-16T20:57:17.834Z,-0.23
2022-12-16T21:00:03.858Z,-0.47
2022-12-16T21:02:49.902Z,-0.49
2022-12-16T21:05:35.856Z,-0.45
2022-12-16T21:08:21.821Z,-0.49
2022-12-16T21:11:07.892Z,-0.38
2022-12-16T21:13:56.435Z,-0.20
2022-12-16T21:16:42.594Z,-0.51
2022-12-16T21:19:33.222Z,-0.60
2022-12-16T21:22:19.295Z,-0.59
2022-12-16T21:25:05.598Z,-0.61
2022-12-16T21:27:59.604Z,-0.64
2022-12-16T21:30:47.098Z,-0.34
2022-12-16T21:33:35.243Z,-0.41
2022-12-16T21:36:21.341Z,-0.68
2022-12-16T21:39:07.254Z,-0.64
2022-12-16T21:41:53.623Z,-0.69
2022-12-16T21:44:41.817Z,-0.74
2022-12-16T21:47:29.322Z,-0.52
2022-12-16T21:50:14.729Z,-0.82
2022-12-16T21:53:00.776Z,-0.74
2022-12-16T21:55:50.320Z,-0.71
2022-12-16T21:58:36.183Z,-0.69
2022-12-16T22:01:21.818Z,-0.61
2022-12-16T22:04:10.813Z,-0.52
2022-12-16T22:06:56.239Z,-0.77
2022-12-16T22:09:42.183Z,-0.82
2022-12-16T22:12:28.219Z,-0.83
2022-12-16T22:15:16.095Z,-0.81
2022-12-16T22:18:10.024Z,-0.82
2022-12-16T22:21:00.923Z,-0.47
2022-12-16T22:23:47.186Z,-0.78
2022-12-16T22:26:33.271Z,-0.92
2022-12-16T22:29:18.924Z,-0.76
2022-12-16T22:32:04.929Z,-0.77
2022-12-16T22:34:50.764Z,-0.81
2022-12-16T22:37:38.057Z,-0.62
2022-12-16T22:40:24.866Z,-0.72
2022-12-16T22:43:10.607Z,-0.90
2022-12-16T22:45:56.295Z,-1.01
2022-12-16T22:48:39.188Z,-0.99
2022-12-16T22:51:29.475Z,-0.62
2022-12-16T22:54:16.812Z,-0.77
2022-12-16T22:57:02.472Z,-1.03
2022-12-16T22:59:48.923Z,-0.93
2022-12-16T23:02:34.385Z,-1.05
2022-12-16T23:05:27.144Z,-1.05
2022-12-16T23:08:13.853Z,-0.96
2022-12-16T23:11:01.858Z,-0.81
2022-12-16T23:13:47.610Z,-1.04
2022-12-16T23:16:33.496Z,-1.09
2022-12-16T23:19:19.230Z,-1.06
2022-12-16T23:22:06.843Z,-0.82
2022-12-16T23:24:52.520Z,-1.06
2022-12-16T23:27:39.849Z,-0.83
2022-12-16T23:30:26.747Z,-0.85
2022-12-16T23:33:15.999Z,-0.77
2022-12-16T23:36:01.382Z,-1.18
2022-12-16T23:38:47.587Z,-1.24
2022-12-16T23:41:33.002Z,-1.15
2022-12-16T23:44:20.184Z,-0.82
2022-12-16T23:47:05.763Z,-1.10
2022-12-16T23:49:51.970Z,-1.17
2022-12-16T23:52:37.872Z,-1.17
2022-12-16T23:55:24.767Z,-1.02
2022-12-16T23:58:16.511Z,-0.72
